Time;durP1;ratioP1;P1;durP2;ratioP2;P2;SDS_P1;SDS_P2;PMS_P1;PMS_P2;Temp;Humidity;BMP_temperature;BMP_pressure;BME280_temperature;BME280_humidity;BME280_pressure;Samples;Min_cycle;Max_cycle;Signal;HPM_P1;HPM_P2
2023/04/24 00:00:32;;;;;;;4.25;2.25;;;9.90;99.90;;;;;;7369324;19;20026;-63
2023/04/24 00:02:58;;;;;;;2.30;1.95;;;9.90;99.90;;;;;;7370875;19;20039;-64
2023/04/24 00:05:25;;;;;;;3.42;2.53;;;9.80;99.90;;;;;;7368613;19;20023;-63
2023/04/24 00:07:55;;;;;;;3.35;2.80;;;9.80;99.90;;;;;;7369402;19;20052;-66
2023/04/24 00:10:21;;;;;;;3.38;2.85;;;9.80;99.90;;;;;;7366719;19;20483;-66
2023/04/24 00:12:47;;;;;;;3.75;3.20;;;9.80;99.90;;;;;;7371566;19;20021;-66
2023/04/24 00:15:14;;;;;;;4.57;3.45;;;9.80;99.90;;;;;;7367136;19;20041;-66
2023/04/24 00:17:40;;;;;;;4.22;3.83;;;9.80;99.90;;;;;;7370211;19;20054;-66
2023/04/24 00:20:07;;;;;;;5.28;3.42;;;9.80;99.90;;;;;;7363056;19;20056;-65
2023/04/24 00:22:33;;;;;;;4.28;3.80;;;9.80;99.90;;;;;;7371246;19;20408;-65
2023/04/24 00:24:59;;;;;;;4.78;4.28;;;9.80;99.90;;;;;;7367921;19;21211;-65
2023/04/24 00:27:26;;;;;;;5.47;4.75;;;9.80;99.90;;;;;;7370203;19;20010;-66
2023/04/24 00:29:52;;;;;;;5.47;4.47;;;9.80;99.90;;;;;;7367924;19;20027;-65
2023/04/24 00:32:18;;;;;;;5.40;4.57;;;9.80;99.90;;;;;;7370974;19;20077;-65
2023/04/24 00:34:45;;;;;;;5.07;4.28;;;9.80;99.90;;;;;;7367035;19;20039;-65
2023/04/24 00:37:11;;;;;;;5.78;5.18;;;9.80;99.90;;;;;;7367066;19;20022;-65
2023/04/24 00:39:37;;;;;;;6.10;5.50;;;9.80;99.90;;;;;;7365302;19;20019;-63
2023/04/24 00:42:06;;;;;;;5.85;5.00;;;9.80;99.90;;;;;;7369236;19;20019;-63
2023/04/24 00:44:34;;;;;;;6.32;5.68;;;9.80;99.90;;;;;;7365353;19;20061;-63
2023/04/24 00:47:01;;;;;;;7.80;5.60;;;9.90;99.90;;;;;;7366146;19;20047;-63
2023/04/24 00:49:27;;;;;;;7.78;6.22;;;9.80;99.90;;;;;;7369334;19;20010;-63
2023/04/24 00:51:54;;;;;;;7.07;6.18;;;9.80;99.90;;;;;;7366103;19;20022;-63
2023/04/24 00:54:20;;;;;;;8.27;7.22;;;9.90;99.90;;;;;;7367267;19;20784;-63
2023/04/24 00:56:47;;;;;;;7.97;7.18;;;9.90;99.90;;;;;;7367675;19;20636;-63
2023/04/24 00:59:14;;;;;;;8.05;7.13;;;9.90;99.90;;;;;;7365943;19;20015;-63
2023/04/24 01:01:41;;;;;;;8.98;7.53;;;9.90;99.90;;;;;;7365448;19;20014;-66
2023/04/24 01:04:10;;;;;;;8.00;7.20;;;9.90;99.90;;;;;;7370492;19;20098;-65
2023/04/24 01:06:39;;;;;;;8.13;7.32;;;10.00;99.90;;;;;;7373552;19;20782;-65
2023/04/24 01:09:08;;;;;;;8.75;7.85;;;9.90;99.90;;;;;;7376277;19;20402;-65
2023/04/24 01:11:34;;;;;;;11.40;9.07;;;9.90;99.90;;;;;;7375917;19;20043;-66
2023/04/24 01:14:01;;;;;;;10.60;9.60;;;9.90;99.90;;;;;;7373183;19;20026;-63
2023/04/24 01:16:27;;;;;;;10.98;9.25;;;9.90;99.90;;;;;;7377075;19;20018;-63
2023/04/24 01:18:54;;;;;;;10.15;9.15;;;9.90;99.90;;;;;;7374193;19;20018;-63
2023/04/24 01:21:21;;;;;;;10.27;8.75;;;9.90;99.90;;;;;;7376152;19;20024;-63
2023/04/24 01:23:47;;;;;;;10.05;8.93;;;9.90;99.90;;;;;;7374625;19;20019;-63
2023/04/24 01:26:15;;;;;;;10.98;9.88;;;9.90;99.90;;;;;;7371372;19;20026;-63
2023/04/24 01:28:42;;;;;;;9.90;8.90;;;10.00;99.90;;;;;;7368952;19;20419;-63
2023/04/24 01:31:08;;;;;;;10.77;9.68;;;10.00;99.90;;;;;;7370483;19;20014;-63
2023/04/24 01:33:35;;;;;;;9.52;8.43;;;10.00;99.90;;;;;;7369773;19;20044;-63
2023/04/24 01:36:01;;;;;;;8.35;7.55;;;10.00;99.90;;;;;;7371925;19;20078;-63
2023/04/24 01:38:27;;;;;;;9.23;8.43;;;9.90;99.90;;;;;;7369988;19;20022;-63
2023/04/24 01:40:54;;;;;;;9.38;8.57;;;9.90;99.90;;;;;;7372836;19;20098;-63
2023/04/24 01:43:20;;;;;;;9.57;8.68;;;9.80;99.90;;;;;;7369683;19;20018;-63
2023/04/24 01:45:47;;;;;;;9.02;8.23;;;9.80;99.90;;;;;;7375922;19;20019;-63
2023/04/24 01:48:13;;;;;;;9.05;8.35;;;9.70;99.90;;;;;;7372468;19;20018;-63
2023/04/24 01:50:39;;;;;;;8.93;8.23;;;9.70;99.90;;;;;;7374154;19;20018;-63
2023/04/24 01:53:06;;;;;;;9.57;8.77;;;9.60;99.90;;;;;;7370993;19;20014;-63
2023/04/24 01:55:32;;;;;;;8.60;7.80;;;9.60;99.90;;;;;;7375221;19;20585;-63
2023/04/24 01:58:00;;;;;;;9.40;8.60;;;9.60;99.90;;;;;;7373181;19;20120;-65
2023/04/24 02:00:27;;;;;;;8.98;8.18;;;9.50;99.90;;;;;;7373140;19;20390;-66
2023/04/24 02:02:53;;;;;;;8.68;7.97;;;9.50;99.90;;;;;;7371376;19;20499;-66
2023/04/24 02:05:19;;;;;;;8.60;7.78;;;9.50;99.90;;;;;;7374396;19;20125;-66
2023/04/24 02:07:46;;;;;;;9.60;8.80;;;9.50;99.90;;;;;;7373101;19;20014;-63
2023/04/24 02:10:13;;;;;;;9.13;8.32;;;9.50;99.90;;;;;;7373585;19;20026;-63
2023/04/24 02:12:42;;;;;;;9.30;8.50;;;9.50;99.90;;;;;;7368862;19;20022;-63
2023/04/24 02:15:09;;;;;;;8.90;8.20;;;9.50;99.90;;;;;;7371369;19;20037;-63
2023/04/24 02:17:37;;;;;;;8.77;7.97;;;9.40;99.90;;;;;;7373333;19;20025;-63
2023/04/24 02:20:06;;;;;;;8.63;7.82;;;9.40;99.90;;;;;;7371557;19;20014;-63
2023/04/24 02:22:32;;;;;;;9.23;8.30;;;9.40;99.90;;;;;;7376179;19;20022;-63
2023/04/24 02:25:02;;;;;;;8.65;7.88;;;9.40;99.90;;;;;;7373029;19;20018;-66
2023/04/24 02:27:30;;;;;;;9.30;8.50;;;9.40;99.90;;;;;;7374112;19;20057;-66
2023/04/24 02:29:56;;;;;;;9.43;8.55;;;9.40;99.90;;;;;;7369858;19;20022;-67
2023/04/24 02:32:23;;;;;;;8.85;8.15;;;9.40;99.90;;;;;;7372665;19;20019;-66
2023/04/24 02:34:49;;;;;;;9.88;8.98;;;9.40;99.90;;;;;;7373630;19;20904;-65
2023/04/24 02:37:18;;;;;;;10.07;9.23;;;9.40;99.90;;;;;;7374924;19;20030;-66
2023/04/24 02:39:44;;;;;;;10.40;9.38;;;9.40;99.90;;;;;;7373323;19;20022;-66
2023/04/24 02:42:11;;;;;;;9.40;8.50;;;9.40;99.90;;;;;;7370099;19;20097;-66
2023/04/24 02:44:37;;;;;;;9.95;9.15;;;9.40;99.90;;;;;;7374577;19;20022;-66
2023/04/24 02:47:03;;;;;;;10.50;9.57;;;9.40;99.90;;;;;;7369720;19;20018;-63
2023/04/24 02:49:30;;;;;;;10.35;9.48;;;9.40;99.90;;;;;;7369159;19;20861;-63
2023/04/24 02:51:56;;;;;;;10.93;9.93;;;9.40;99.90;;;;;;7368874;19;20018;-63
2023/04/24 02:54:22;;;;;;;10.73;9.73;;;9.40;99.90;;;;;;7375179;19;20029;-63
2023/04/24 02:56:49;;;;;;;11.25;10.15;;;9.40;99.90;;;;;;7370275;19;20056;-63
2023/04/24 02:59:15;;;;;;;10.85;9.85;;;9.40;99.90;;;;;;7371700;19;20025;-66
2023/04/24 03:01:42;;;;;;;11.43;10.32;;;9.40;99.90;;;;;;7370555;19;20025;-66
2023/04/24 03:04:08;;;;;;;11.18;10.07;;;9.40;99.90;;;;;;7371801;19;20018;-66
2023/04/24 03:06:35;;;;;;;11.32;10.32;;;9.30;99.90;;;;;;7373074;19;20022;-67
2023/04/24 03:09:03;;;;;;;12.02;10.93;;;9.30;99.90;;;;;;7369772;19;20018;-66
2023/04/24 03:11:29;;;;;;;11.77;10.77;;;9.40;99.90;;;;;;7370476;19;20021;-66
2023/04/24 03:13:55;;;;;;;11.40;10.25;;;9.30;99.90;;;;;;7369139;19;20030;-66
2023/04/24 03:16:22;;;;;;;11.95;10.88;;;9.30;99.90;;;;;;7370359;19;20056;-66
2023/04/24 03:18:48;;;;;;;12.45;11.25;;;9.30;99.90;;;;;;7369650;19;20017;-66
2023/04/24 03:21:15;;;;;;;12.18;11.00;;;9.30;99.90;;;;;;7370616;19;20028;-66
2023/04/24 03:23:42;;;;;;;12.13;11.02;;;9.30;99.90;;;;;;7369818;19;20022;-66
2023/04/24 03:26:10;;;;;;;12.15;11.05;;;9.30;99.90;;;;;;7369739;19;21058;-66
2023/04/24 03:28:40;;;;;;;11.88;10.77;;;9.30;99.90;;;;;;7368493;19;20022;-67
2023/04/24 03:31:07;;;;;;;11.88;10.77;;;9.30;99.90;;;;;;7370988;19;20046;-66
2023/04/24 03:33:35;;;;;;;12.98;11.68;;;9.30;99.90;;;;;;7369404;19;20042;-66
2023/04/24 03:36:02;;;;;;;13.38;11.70;;;9.30;99.90;;;;;;7370345;19;20022;-63
2023/04/24 03:38:36;;;;;;;12.82;11.63;;;9.30;99.90;;;;;;7369098;19;20036;-66
2023/04/24 03:41:23;;;;;;;11.63;10.63;;;9.30;99.90;;;;;;7374060;19;20030;-63
2023/04/24 03:43:53;;;;;;;10.95;9.95;;;9.30;99.90;;;;;;7370590;19;20015;-63
2023/04/24 03:46:19;;;;;;;10.25;9.35;;;9.20;99.90;;;;;;7371360;19;20037;-63
2023/04/24 03:48:58;;;;;;;9.43;8.57;;;9.20;99.90;;;;;;7368151;19;20864;-63
2023/04/24 03:51:31;;;;;;;8.88;8.07;;;9.30;99.90;;;;;;7371124;19;20026;-63
2023/04/24 03:54:05;;;;;;;7.57;6.88;;;9.30;99.90;;;;;;7369691;19;20014;-63
2023/04/24 03:56:34;;;;;;;8.70;7.90;;;9.20;99.90;;;;;;7371911;19;20031;-63
2023/04/24 03:59:02;;;;;;;7.57;6.88;;;9.20;99.90;;;;;;7364820;19;20018;-63
2023/04/24 04:01:30;;;;;;;8.77;7.97;;;9.20;99.90;;;;;;7371518;19;20010;-63
2023/04/24 04:04:06;;;;;;;8.07;7.28;;;9.30;99.90;;;;;;7368457;19;20032;-64
2023/04/24 04:06:32;;;;;;;6.53;5.90;;;9.20;99.90;;;;;;7366854;19;20022;-63
2023/04/24 04:09:00;;;;;;;7.05;6.35;;;9.20;99.90;;;;;;7367563;19;20019;-63
2023/04/24 04:11:27;;;;;;;6.30;5.28;;;9.20;99.90;;;;;;7369738;19;20017;-63
2023/04/24 04:13:53;;;;;;;5.90;5.40;;;9.30;99.90;;;;;;7367807;19;20018;-63
2023/04/24 04:16:21;;;;;;;5.55;4.43;;;9.20;99.90;;;;;;7369013;19;20038;-63
2023/04/24 04:18:50;;;;;;;4.45;3.75;;;9.20;99.90;;;;;;7369547;19;20019;-65
2023/04/24 04:21:17;;;;;;;4.10;3.22;;;9.30;99.90;;;;;;7368606;19;20101;-63
2023/04/24 04:23:43;;;;;;;2.58;2.30;;;9.20;99.90;;;;;;7371346;19;20607;-63
2023/04/24 04:26:25;;;;;;;3.53;2.50;;;9.20;99.90;;;;;;7368293;19;20018;-63
2023/04/24 04:29:03;;;;;;;5.68;3.78;;;9.20;99.90;;;;;;7366934;19;20026;-66
2023/04/24 04:31:30;;;;;;;7.35;6.38;;;9.30;99.90;;;;;;7370172;19;20039;-66
2023/04/24 04:34:01;;;;;;;7.63;6.93;;;9.30;99.90;;;;;;7366046;19;20022;-63
2023/04/24 04:36:29;;;;;;;9.43;8.50;;;9.30;99.90;;;;;;7369962;19;20023;-63
2023/04/24 04:39:03;;;;;;;8.95;7.88;;;9.30;99.90;;;;;;7371039;19;20711;-63
2023/04/24 04:41:53;;;;;;;9.75;8.85;;;9.30;99.90;;;;;;7375964;19;20030;-63
2023/04/24 04:44:23;;;;;;;9.63;8.63;;;9.30;99.90;;;;;;7379162;19;20022;-66
2023/04/24 04:46:52;;;;;;;9.38;8.48;;;9.30;99.90;;;;;;7373163;19;20022;-66
2023/04/24 04:49:24;;;;;;;9.02;8.10;;;9.30;99.90;;;;;;7372997;19;20045;-66
2023/04/24 04:51:51;;;;;;;8.90;8.05;;;9.20;99.90;;;;;;7374661;19;20021;-66
2023/04/24 04:54:18;;;;;;;8.32;7.53;;;9.20;99.90;;;;;;7372710;19;20757;-66
2023/04/24 04:56:45;;;;;;;7.63;6.82;;;9.30;99.90;;;;;;7370115;19;20580;-66
2023/04/24 04:59:13;;;;;;;7.50;6.75;;;9.20;99.90;;;;;;7371869;19;20057;-66
2023/04/24 05:01:41;;;;;;;6.60;5.93;;;9.20;99.90;;;;;;7369408;19;20014;-66
2023/04/24 05:04:08;;;;;;;6.80;5.50;;;9.20;99.90;;;;;;7369135;19;21231;-63
2023/04/24 05:06:34;;;;;;;6.90;5.93;;;9.10;99.90;;;;;;7370435;19;20023;-63
2023/04/24 05:09:00;;;;;;;6.05;5.45;;;9.10;99.90;;;;;;7368245;19;20015;-63
2023/04/24 05:11:37;;;;;;;6.22;5.47;;;9.10;99.90;;;;;;7371026;19;20019;-66
2023/04/24 05:14:03;;;;;;;6.75;5.75;;;9.10;99.90;;;;;;7365921;19;20580;-66
2023/04/24 05:16:37;;;;;;;6.57;5.32;;;9.10;99.90;;;;;;7369625;19;20022;-66
2023/04/24 05:19:05;;;;;;;7.45;5.65;;;9.10;99.90;;;;;;7365424;19;20023;-66
2023/04/24 05:21:36;;;;;;;6.20;5.60;;;9.10;99.90;;;;;;7364395;19;20014;-66
2023/04/24 05:24:02;;;;;;;6.45;5.32;;;9.10;99.90;;;;;;7372595;19;20018;-66
2023/04/24 05:27:02;;;;;;;7.03;6.20;;;9.10;99.90;;;;;;7371972;19;20055;-66
2023/04/24 05:29:34;;;;;;;8.13;6.85;;;9.10;99.90;;;;;;7370015;19;20082;-65
2023/04/24 05:32:01;;;;;;;7.03;6.30;;;9.20;99.90;;;;;;7369729;19;20006;-64
2023/04/24 05:34:29;;;;;;;9.52;6.93;;;9.20;99.90;;;;;;7370443;19;20021;-63
2023/04/24 05:36:56;;;;;;;9.02;7.47;;;9.10;99.90;;;;;;7371219;19;20078;-63
2023/04/24 05:39:24;;;;;;;8.15;6.70;;;9.10;99.90;;;;;;7370214;19;20726;-63
2023/04/24 05:41:51;;;;;;;10.07;8.02;;;9.20;99.90;;;;;;7371253;19;20110;-62
2023/04/24 05:44:18;;;;;;;9.77;7.65;;;9.10;99.90;;;;;;7367401;19;20035;-63
2023/04/24 05:46:44;;;;;;;10.80;7.75;;;9.10;99.90;;;;;;7370507;19;20007;-63
2023/04/24 05:49:11;;;;;;;9.63;7.13;;;9.20;99.90;;;;;;7367545;19;20019;-63
2023/04/24 05:51:39;;;;;;;9.77;7.10;;;9.10;99.90;;;;;;7366119;19;20023;-64
2023/04/24 05:54:05;;;;;;;10.88;7.97;;;9.20;99.90;;;;;;7367049;19;20022;-64
2023/04/24 05:56:31;;;;;;;11.48;7.47;;;9.20;99.90;;;;;;7371594;19;20378;-62
2023/04/24 05:58:59;;;;;;;13.55;8.48;;;9.30;99.90;;;;;;7368328;19;20024;-62
2023/04/24 06:01:26;;;;;;;12.40;8.23;;;9.30;99.90;;;;;;7371323;19;20046;-62
2023/04/24 06:04:03;;;;;;;11.32;8.20;;;9.40;99.90;;;;;;7366595;19;20031;-63
2023/04/24 06:06:31;;;;;;;12.80;10.48;;;9.40;99.90;;;;;;7369941;19;20018;-62
2023/04/24 06:08:58;;;;;;;11.57;8.50;;;9.50;99.90;;;;;;7366757;19;20094;-62
2023/04/24 06:11:25;;;;;;;12.98;8.27;;;9.50;99.90;;;;;;7370508;19;20021;-63
2023/04/24 06:13:52;;;;;;;11.85;8.63;;;9.50;99.90;;;;;;7370652;19;20021;-62
2023/04/24 06:16:51;;;;;;;9.93;7.63;;;9.50;99.90;;;;;;7370371;19;20054;-62
2023/04/24 06:19:29;;;;;;;8.20;5.95;;;9.50;99.90;;;;;;7368169;19;20018;-62
2023/04/24 06:21:55;;;;;;;7.53;6.25;;;9.50;99.90;;;;;;7370879;19;20019;-63
2023/04/24 06:24:22;;;;;;;6.97;5.50;;;9.60;99.90;;;;;;7368398;19;20025;-63
2023/04/24 06:26:48;;;;;;;7.28;6.07;;;9.60;99.90;;;;;;7363732;19;20022;-63
2023/04/24 06:29:14;;;;;;;7.03;5.55;;;9.60;99.90;;;;;;7366802;19;20794;-62
2023/04/24 06:31:40;;;;;;;8.63;5.93;;;9.60;99.90;;;;;;7365043;19;20023;-63
2023/04/24 06:34:06;;;;;;;8.40;6.38;;;9.60;99.90;;;;;;7364992;19;20018;-62
2023/04/24 06:36:34;;;;;;;7.10;5.45;;;9.70;99.90;;;;;;7368862;19;20026;-62
2023/04/24 06:39:01;;;;;;;6.72;5.45;;;9.70;99.90;;;;;;7370682;19;20021;-63
2023/04/24 06:41:28;;;;;;;6.88;5.53;;;9.70;99.90;;;;;;7367739;19;20038;-62
2023/04/24 06:43:54;;;;;;;5.35;3.95;;;9.80;99.90;;;;;;7375172;19;20105;-63
2023/04/24 06:46:25;;;;;;;5.40;3.25;;;9.70;99.90;;;;;;7367959;19;20082;-63
2023/04/24 06:48:55;;;;;;;5.33;3.33;;;9.80;99.90;;;;;;7373663;19;20027;-63
2023/04/24 06:51:25;;;;;;;5.07;3.22;;;9.80;99.90;;;;;;7368943;19;20026;-63
2023/04/24 06:53:53;;;;;;;5.20;3.90;;;9.80;99.90;;;;;;7371240;19;21115;-63
2023/04/24 06:56:20;;;;;;;6.13;4.35;;;9.80;99.90;;;;;;7367583;19;20443;-63
2023/04/24 06:58:46;;;;;;;7.55;4.18;;;9.80;99.90;;;;;;7370777;19;20015;-62
2023/04/24 07:01:12;;;;;;;10.00;4.47;;;9.80;99.90;;;;;;7367297;19;20022;-63
2023/04/24 07:03:39;;;;;;;7.25;4.47;;;9.90;99.90;;;;;;7369386;19;20050;-63
2023/04/24 07:06:06;;;;;;;9.15;5.32;;;9.90;99.90;;;;;;7369842;19;20018;-62
2023/04/24 07:08:32;;;;;;;7.32;5.03;;;10.00;99.90;;;;;;7373102;19;20024;-63
2023/04/24 07:10:59;;;;;;;7.93;5.50;;;9.90;99.90;;;;;;7369938;19;20377;-63
2023/04/24 07:13:27;;;;;;;10.00;6.25;;;9.90;99.90;;;;;;7368942;19;20015;-63
2023/04/24 07:15:55;;;;;;;9.63;6.30;;;9.90;99.90;;;;;;7373467;19;20021;-62
2023/04/24 07:18:22;;;;;;;9.57;5.97;;;9.90;99.90;;;;;;7366055;19;20026;-62
2023/04/24 07:20:51;;;;;;;9.18;6.68;;;10.00;99.90;;;;;;7369699;19;20493;-63
2023/04/24 07:23:18;;;;;;;9.65;7.00;;;9.90;99.90;;;;;;7368416;19;20044;-62
2023/04/24 07:25:45;;;;;;;11.80;8.00;;;9.90;99.90;;;;;;7370471;19;20023;-64
2023/04/24 07:28:11;;;;;;;15.75;9.35;;;9.90;99.90;;;;;;7366727;19;20101;-62
2023/04/24 07:30:37;;;;;;;13.27;9.88;;;9.90;99.90;;;;;;7366982;19;20056;-63
2023/04/24 07:33:03;;;;;;;15.50;10.18;;;9.80;99.90;;;;;;7368129;19;20018;-63
2023/04/24 07:35:30;;;;;;;14.07;10.88;;;9.90;99.90;;;;;;7370995;19;20102;-63
2023/04/24 07:37:56;;;;;;;16.63;11.65;;;9.90;99.90;;;;;;7369636;19;20781;-63
2023/04/24 07:40:23;;;;;;;15.93;11.52;;;9.90;99.90;;;;;;7365957;19;20018;-63
2023/04/24 07:42:49;;;;;;;16.65;10.70;;;9.90;99.90;;;;;;7368753;19;20190;-63
2023/04/24 07:45:15;;;;;;;13.90;10.25;;;10.00;99.90;;;;;;7369172;19;20043;-63
2023/04/24 07:47:43;;;;;;;16.20;8.40;;;10.00;99.90;;;;;;7369332;19;20098;-63
2023/04/24 07:50:10;;;;;;;11.43;8.50;;;10.00;99.90;;;;;;7363500;19;20059;-63
2023/04/24 07:52:36;;;;;;;12.23;8.90;;;9.90;99.90;;;;;;7373024;19;20021;-63
2023/04/24 07:55:04;;;;;;;12.48;7.60;;;9.90;99.90;;;;;;7367071;19;21354;-64
2023/04/24 07:57:31;;;;;;;7.47;5.28;;;10.00;99.90;;;;;;7368608;19;20023;-62
2023/04/24 07:59:57;;;;;;;9.40;4.68;;;9.90;99.90;;;;;;7363515;19;20632;-63
2023/04/24 08:02:26;;;;;;;6.05;4.20;;;9.90;99.90;;;;;;7371358;19;20022;-63
2023/04/24 08:04:56;;;;;;;5.75;4.50;;;9.70;99.90;;;;;;7368503;19;20018;-63
2023/04/24 08:07:23;;;;;;;10.27;5.70;;;9.70;99.90;;;;;;7369488;19;20019;-64
2023/04/24 08:09:49;;;;;;;7.72;4.82;;;9.60;99.90;;;;;;7367968;19;20078;-63
2023/04/24 08:12:15;;;;;;;7.50;5.20;;;9.70;99.90;;;;;;7365702;19;20072;-63
2023/04/24 08:14:42;;;;;;;9.55;5.55;;;9.60;99.90;;;;;;7380699;19;20029;-63
2023/04/24 08:17:09;;;;;;;6.50;4.47;;;9.60;99.90;;;;;;7374592;19;20026;-64
2023/04/24 08:19:35;;;;;;;6.20;5.07;;;9.60;99.90;;;;;;7379476;19;20382;-63
2023/04/24 08:22:03;;;;;;;7.22;4.25;;;9.60;99.90;;;;;;7381902;19;20018;-64
2023/04/24 08:24:30;;;;;;;7.78;4.38;;;9.60;99.90;;;;;;7383030;19;20488;-63
2023/04/24 08:26:57;;;;;;;6.38;4.78;;;9.60;99.90;;;;;;7380946;19;20023;-63
2023/04/24 08:29:24;;;;;;;11.60;6.65;;;9.60;99.90;;;;;;7379550;19;20110;-62
2023/04/24 08:31:50;;;;;;;9.07;5.35;;;9.60;99.90;;;;;;7382315;19;20371;-63
2023/04/24 08:34:17;;;;;;;9.60;8.20;;;9.60;99.90;;;;;;7376438;19;20024;-64
2023/04/24 08:36:43;;;;;;;11.00;7.93;;;9.60;99.90;;;;;;7383396;19;20018;-64
2023/04/24 08:39:11;;;;;;;12.52;7.22;;;9.60;99.90;;;;;;7378588;19;20026;-63
2023/04/24 08:41:37;;;;;;;13.88;9.15;;;9.60;99.90;;;;;;7380668;19;20380;-61
2023/04/24 08:44:04;;;;;;;15.90;10.15;;;9.60;99.90;;;;;;7378089;19;20019;-61
2023/04/24 08:46:31;;;;;;;22.25;10.55;;;9.60;99.90;;;;;;7382404;19;20609;-63
2023/04/24 08:48:58;;;;;;;18.35;12.77;;;9.60;99.90;;;;;;7376198;19;20019;-63
2023/04/24 08:51:27;;;;;;;19.45;13.27;;;9.40;99.90;;;;;;7382579;19;20018;-63
2023/04/24 08:53:54;;;;;;;20.55;14.18;;;9.50;99.90;;;;;;7378558;19;20019;-63
2023/04/24 08:56:23;;;;;;;21.98;14.68;;;9.40;99.90;;;;;;7384578;19;20690;-63
2023/04/24 08:58:53;;;;;;;22.33;16.17;;;9.30;99.90;;;;;;7379203;19;20018;-62
2023/04/24 09:01:20;;;;;;;25.80;16.70;;;9.30;99.90;;;;;;7382049;19;20023;-63
2023/04/24 09:03:49;;;;;;;27.95;17.60;;;9.30;99.90;;;;;;7383163;19;20085;-62
2023/04/24 09:06:18;;;;;;;30.00;19.60;;;9.20;99.90;;;;;;7382812;19;20043;-62
2023/04/24 09:08:47;;;;;;;30.52;19.98;;;9.20;99.90;;;;;;7382682;19;20034;-62
2023/04/24 09:11:14;;;;;;;25.50;19.42;;;9.10;99.90;;;;;;7381394;19;20074;-62
2023/04/24 09:13:40;;;;;;;28.52;21.10;;;9.00;99.90;;;;;;7381221;19;20006;-63
2023/04/24 09:16:07;;;;;;;29.90;19.83;;;9.10;99.90;;;;;;7377993;19;20038;-62
2023/04/24 09:18:35;;;;;;;30.08;21.33;;;9.00;99.90;;;;;;7382418;19;20024;-63
2023/04/24 09:21:04;;;;;;;33.42;21.35;;;9.00;99.90;;;;;;7377312;19;20021;-63
2023/04/24 09:23:31;;;;;;;30.67;22.63;;;9.00;99.90;;;;;;7379922;19;20010;-63
2023/04/24 09:26:00;;;;;;;30.77;23.58;;;9.10;99.90;;;;;;7371691;19;20454;-63
2023/04/24 09:28:40;;;;;;;31.08;23.60;;;9.10;99.90;;;;;;7377802;19;20014;-63
2023/04/24 09:31:14;;;;;;;34.30;24.08;;;9.10;99.90;;;;;;7370966;19;20555;-63
2023/04/24 09:33:52;;;;;;;27.75;22.27;;;9.10;99.90;;;;;;7371937;19;20387;-63
2023/04/24 09:36:19;;;;;;;31.35;21.23;;;9.20;99.90;;;;;;7374136;19;20489;-63
2023/04/24 09:38:46;;;;;;;27.27;19.88;;;9.10;99.90;;;;;;7374362;19;20788;-63
2023/04/24 09:41:13;;;;;;;25.10;20.08;;;9.20;99.90;;;;;;7368245;19;20146;-62
2023/04/24 09:43:40;;;;;;;24.48;19.70;;;9.20;99.90;;;;;;7372962;19;20086;-62
2023/04/24 09:46:08;;;;;;;24.02;18.27;;;9.30;99.90;;;;;;7372592;19;20018;-60
2023/04/24 09:48:36;;;;;;;26.17;18.08;;;9.30;99.90;;;;;;7372503;19;20081;-63
2023/04/24 09:51:06;;;;;;;21.48;16.80;;;9.30;99.90;;;;;;7375271;19;20082;-63
2023/04/24 09:53:33;;;;;;;24.92;16.80;;;9.20;99.90;;;;;;7370385;19;20032;-63
2023/04/24 09:56:10;;;;;;;20.73;16.95;;;9.20;99.90;;;;;;7371834;19;20094;-63
2023/04/24 09:58:37;;;;;;;22.25;15.65;;;9.10;99.90;;;;;;7374065;19;20089;-63
2023/04/24 10:01:03;;;;;;;25.77;17.05;;;9.10;99.90;;;;;;7369854;19;20413;-62
2023/04/24 10:03:31;;;;;;;24.83;17.88;;;9.20;99.90;;;;;;7372479;19;20030;-63
2023/04/24 10:06:01;;;;;;;28.17;16.92;;;9.10;99.90;;;;;;7368067;19;20018;-63
2023/04/24 10:08:34;;;;;;;27.60;16.80;;;9.20;99.90;;;;;;7372553;19;20292;-62
2023/04/24 10:11:01;;;;;;;26.33;17.70;;;9.20;99.90;;;;;;7369296;19;20025;-62
2023/04/24 10:13:28;;;;;;;22.75;15.65;;;9.40;99.90;;;;;;7373688;19;20395;-62
2023/04/24 10:15:56;;;;;;;25.17;13.55;;;9.40;99.90;;;;;;7368057;19;20029;-61
2023/04/24 10:18:23;;;;;;;19.70;13.32;;;9.40;99.90;;;;;;7373519;19;20029;-61
2023/04/24 10:20:54;;;;;;;18.27;12.80;;;9.60;99.90;;;;;;7373800;19;20668;-61
2023/04/24 10:23:21;;;;;;;18.83;11.45;;;9.60;99.90;;;;;;7371966;19;20022;-62
2023/04/24 10:25:49;;;;;;;19.83;13.38;;;9.60;99.90;;;;;;7374416;19;20026;-61
2023/04/24 10:28:16;;;;;;;19.67;11.65;;;9.60;99.90;;;;;;7369985;19;20039;-62
2023/04/24 10:30:43;;;;;;;19.20;11.55;;;9.70;99.90;;;;;;7371233;19;20020;-62
2023/04/24 10:33:10;;;;;;;16.23;8.73;;;9.60;99.90;;;;;;7369583;19;20026;-62
2023/04/24 10:35:40;;;;;;;14.80;8.50;;;9.50;99.90;;;;;;7372798;19;20019;-62
2023/04/24 10:38:13;;;;;;;18.75;9.70;;;9.50;99.90;;;;;;7371782;19;20233;-62
2023/04/24 10:40:39;;;;;;;17.48;8.43;;;9.50;99.90;;;;;;7371853;19;20029;-62
2023/04/24 10:43:11;;;;;;;12.55;8.32;;;9.40;99.90;;;;;;7370519;19;20026;-63
2023/04/24 10:45:38;;;;;;;13.27;7.68;;;9.40;99.90;;;;;;7371465;19;20011;-63
2023/04/24 10:48:10;;;;;;;22.40;7.35;;;9.40;99.90;;;;;;7371284;19;20022;-62
2023/04/24 10:50:45;;;;;;;12.15;5.78;;;9.30;99.90;;;;;;7372072;19;20056;-63
2023/04/24 10:53:27;;;;;;;13.25;6.18;;;9.20;99.90;;;;;;7371980;19;20018;-63
2023/04/24 10:56:03;;;;;;;13.48;5.53;;;9.10;99.90;;;;;;7373160;19;20025;-62
2023/04/24 10:58:56;;;;;;;12.40;4.82;;;9.10;99.90;;;;;;7372252;19;20051;-63
2023/04/24 11:01:27;;;;;;;13.25;4.97;;;9.10;99.90;;;;;;7370784;19;20019;-63
2023/04/24 11:03:59;;;;;;;11.38;4.90;;;9.10;99.90;;;;;;7373862;19;20021;-63
2023/04/24 11:06:43;;;;;;;10.63;4.88;;;9.10;99.90;;;;;;7372400;19;20022;-63
2023/04/24 11:09:16;;;;;;;14.60;6.18;;;9.20;99.90;;;;;;7369084;19;20022;-62
2023/04/24 11:11:46;;;;;;;17.10;5.63;;;9.40;99.90;;;;;;7371923;19;20033;-63
2023/04/24 11:14:16;;;;;;;16.73;5.75;;;9.60;99.90;;;;;;7371740;19;20486;-63
2023/04/24 11:16:53;;;;;;;13.93;5.30;;;9.60;99.90;;;;;;7374818;19;20022;-63
2023/04/24 11:19:23;;;;;;;16.45;5.65;;;9.60;99.90;;;;;;7368150;19;20619;-62
2023/04/24 11:22:01;;;;;;;13.23;4.88;;;9.40;99.90;;;;;;7374086;19;20044;-63
2023/04/24 11:24:37;;;;;;;15.65;4.68;;;9.40;99.90;;;;;;7371619;19;20604;-63
2023/04/24 11:27:17;;;;;;;11.02;4.28;;;9.30;99.90;;;;;;7367749;19;20105;-63
2023/04/24 11:30:10;;;;;;;13.07;3.85;;;9.20;99.90;;;;;;7372057;19;20026;-64
2023/04/24 11:32:43;;;;;;;13.60;4.05;;;9.20;99.90;;;;;;7370724;19;20588;-62
2023/04/24 11:35:21;;;;;;;10.95;4.28;;;9.20;99.90;;;;;;7368264;19;20355;-62
2023/04/24 11:37:49;;;;;;;11.85;3.67;;;9.30;99.90;;;;;;7374658;19;20018;-62
2023/04/24 11:40:17;;;;;;;15.98;4.38;;;9.30;99.90;;;;;;7371576;19;20039;-64
2023/04/24 11:42:45;;;;;;;11.40;3.72;;;9.40;99.90;;;;;;7371595;19;20018;-63
2023/04/24 11:45:13;;;;;;;13.98;4.38;;;9.50;99.90;;;;;;7368950;19;20345;-63
2023/04/24 11:47:40;;;;;;;12.75;4.55;;;9.60;99.90;;;;;;7371880;19;20018;-63
2023/04/24 11:50:12;;;;;;;10.50;3.78;;;9.60;99.90;;;;;;7366772;19;20419;-62
2023/04/24 11:52:41;;;;;;;12.95;4.15;;;9.80;99.90;;;;;;7367869;19;20022;-62
2023/04/24 11:55:22;;;;;;;10.13;2.80;;;9.90;99.90;;;;;;7367730;19;20018;-63
2023/04/24 11:57:59;;;;;;;12.75;3.38;;;9.80;99.90;;;;;;7372067;19;20029;-63
2023/04/24 12:00:30;;;;;;;9.38;3.28;;;9.80;99.90;;;;;;7369537;19;20109;-63
2023/04/24 12:03:08;;;;;;;8.75;2.78;;;9.70;99.90;;;;;;7370930;19;20022;-63
2023/04/24 12:05:35;;;;;;;13.60;3.20;;;9.60;99.90;;;;;;7370168;19;20039;-63
2023/04/24 12:08:01;;;;;;;7.63;2.47;;;9.50;99.90;;;;;;7369467;19;20506;-63
2023/04/24 12:10:29;;;;;;;9.40;2.63;;;9.50;99.90;;;;;;7369837;19;20404;-63
2023/04/24 12:12:57;;;;;;;8.27;2.50;;;9.40;99.90;;;;;;7368748;19;20028;-63
2023/04/24 12:15:23;;;;;;;11.50;3.17;;;9.40;99.90;;;;;;7366964;19;20047;-63
2023/04/24 12:17:54;;;;;;;7.63;2.33;;;9.40;99.90;;;;;;7369973;19;20472;-62
2023/04/24 12:20:27;;;;;;;8.55;2.50;;;9.50;99.90;;;;;;7355385;19;20018;-62
2023/04/24 12:23:00;;;;;;;9.65;3.03;;;9.60;99.90;;;;;;7355535;19;20018;-62
2023/04/24 12:25:33;;;;;;;9.10;2.70;;;9.70;99.90;;;;;;7365258;19;20529;-62
2023/04/24 12:28:05;;;;;;;7.50;2.42;;;9.70;99.90;;;;;;7365404;19;20014;-63
2023/04/24 12:30:44;;;;;;;10.93;2.72;;;9.90;99.90;;;;;;7366088;19;20486;-62
2023/04/24 12:33:11;;;;;;;8.10;2.50;;;9.90;99.90;;;;;;7367830;19;20564;-63
2023/04/24 12:35:39;;;;;;;7.85;2.47;;;9.90;99.90;;;;;;7366674;19;20023;-62
2023/04/24 12:38:12;;;;;;;8.65;2.28;;;9.90;99.90;;;;;;7366591;19;20032;-63
2023/04/24 12:40:39;;;;;;;4.50;1.50;;;10.00;99.90;;;;;;7364642;19;20019;-63
2023/04/24 12:43:16;;;;;;;2.92;1.33;;;10.00;99.90;;;;;;7368491;19;20029;-62
2023/04/24 12:45:43;;;;;;;6.55;1.45;;;10.00;99.90;;;;;;7369810;19;20538;-63
2023/04/24 12:48:09;;;;;;;4.05;1.30;;;10.00;99.90;;;;;;7372157;19;20026;-63
2023/04/24 12:50:35;;;;;;;4.00;1.25;;;10.10;99.90;;;;;;7366001;19;20011;-63
2023/04/24 12:53:02;;;;;;;4.40;1.30;;;10.40;99.90;;;;;;7369230;19;20587;-63
2023/04/24 12:55:28;;;;;;;5.95;1.55;;;10.50;99.90;;;;;;7370399;19;20031;-62
2023/04/24 12:57:55;;;;;;;3.10;1.23;;;10.70;99.90;;;;;;7373128;19;20075;-62